createdAt,value
2023-01-08T00:05:12.727Z,71.30
2023-01-08T00:15:19.069Z,74.70
2023-01-08T00:25:25.376Z,70.60
2023-01-08T00:35:31.710Z,69.20
2023-01-08T00:45:38.077Z,65.50
2023-01-08T00:55:44.420Z,62.10
2023-01-08T01:05:51.209Z,62.80
2023-01-08T01:16:01.715Z,62.70
2023-01-08T01:26:08.152Z,69.20
2023-01-08T01:36:16.081Z,68.20
2023-01-08T01:46:46.514Z,64.40
2023-01-08T01:56:52.831Z,64.40
2023-01-08T02:07:09.786Z,62.60
2023-01-08T02:17:26.083Z,57.50
2023-01-08T02:27:33.262Z,56.70
2023-01-08T02:37:40.084Z,50.80
2023-01-08T02:47:58.999Z,51.00
2023-01-08T02:58:05.961Z,50.20
2023-01-08T03:08:13.149Z,51.00
2023-01-08T03:18:27.331Z,51.20
2023-01-08T03:28:43.397Z,49.10
2023-01-08T03:39:10.919Z,48.90
2023-01-08T03:49:17.349Z,48.60
2023-01-08T03:59:25.840Z,49.40
2023-01-08T04:09:32.363Z,49.30
2023-01-08T04:19:38.659Z,46.30
2023-01-08T04:29:45.028Z,49.40
2023-01-08T04:39:51.340Z,49.50
2023-01-08T04:49:57.726Z,50.40
2023-01-08T05:00:04.547Z,48.10
2023-01-08T05:10:11.565Z,48.50
2023-01-08T05:20:19.055Z,42.00
2023-01-08T05:30:25.473Z,48.40
2023-01-08T05:40:31.733Z,45.50
2023-01-08T05:50:38.157Z,45.80
2023-01-08T06:00:44.468Z,42.50
2023-01-08T06:10:50.792Z,41.90
2023-01-08T06:20:57.334Z,41.90
2023-01-08T06:31:04.615Z,40.10
2023-01-08T06:41:11.977Z,40.50
2023-01-08T06:51:18.334Z,41.10
2023-01-08T07:01:24.832Z,41.60
2023-01-08T07:11:31.210Z,42.20
2023-01-08T07:21:37.524Z,46.60
2023-01-08T07:31:43.932Z,46.30
2023-01-08T07:41:50.319Z,47.40
2023-01-08T07:51:56.631Z,45.70
2023-01-08T08:02:03.200Z,47.80
2023-01-08T08:12:10.114Z,46.50
2023-01-08T08:22:17.004Z,51.20
2023-01-08T08:32:23.321Z,47.20
2023-01-08T08:42:29.576Z,48.80
2023-01-08T08:52:35.897Z,47.40
2023-01-08T09:02:42.392Z,41.70
2023-01-08T09:12:48.831Z,44.00
2023-01-08T09:22:55.536Z,45.70
2023-01-08T09:33:03.396Z,48.40
2023-01-08T09:43:17.478Z,46.00
2023-01-08T09:53:23.905Z,45.70
2023-01-08T10:03:42.923Z,43.70
2023-01-08T10:13:55.174Z,42.90
2023-01-08T10:24:01.480Z,49.80
2023-01-08T10:34:12.477Z,42.50
2023-01-08T10:44:19.940Z,42.60
2023-01-08T10:54:42.280Z,42.50
2023-01-08T11:04:52.493Z,40.70
2023-01-08T11:14:58.889Z,39.60
2023-01-08T11:25:09.936Z,45.40
2023-01-08T11:35:31.136Z,37.40
2023-01-08T11:45:40.344Z,36.30
2023-01-08T11:56:26.681Z,34.70
2023-01-08T12:06:42.961Z,33.90
2023-01-08T12:17:26.862Z,38.50
2023-01-08T12:27:57.625Z,37.35
2023-01-08T12:38:27.043Z,33.20
2023-01-08T12:48:36.036Z,30.20
2023-01-08T12:58:58.987Z,29.20
2023-01-08T13:09:05.293Z,29.00
2023-01-08T13:19:29.311Z,29.40
2023-01-08T13:29:41.562Z,31.80
2023-01-08T13:39:47.930Z,32.40
2023-01-08T13:49:55.136Z,35.50
2023-01-08T14:00:01.490Z,35.20
2023-01-08T14:10:14.491Z,33.10
2023-01-08T14:20:33.966Z,38.10
2023-01-08T14:30:51.270Z,36.40
2023-01-08T14:41:14.854Z,52.40
2023-01-08T14:51:27.408Z,37.30
2023-01-08T15:01:35.266Z,49.90
2023-01-08T15:12:00.498Z,43.20
2023-01-08T15:22:06.987Z,50.80
2023-01-08T15:32:13.669Z,48.50
2023-01-08T15:42:48.616Z,51.10
2023-01-08T15:52:57.652Z,50.30
2023-01-08T16:03:05.489Z,65.70
2023-01-08T16:13:12.379Z,62.60
2023-01-08T16:23:18.733Z,55.10
2023-01-08T16:33:25.195Z,76.20
2023-01-08T16:43:32.325Z,86.60
2023-01-08T16:53:38.960Z,79.70
2023-01-08T17:03:45.420Z,87.50
2023-01-08T17:13:52.012Z,82.90
2023-01-08T17:23:58.326Z,84.30
2023-01-08T17:34:04.793Z,78.00
2023-01-08T17:44:13.471Z,84.50
2023-01-08T17:54:21.043Z,74.10
2023-01-08T18:04:27.445Z,72.20
2023-01-08T18:14:36.315Z,66.00
2023-01-08T18:24:42.947Z,79.30
2023-01-08T18:34:49.845Z,85.40
2023-01-08T18:44:57.197Z,92.80
2023-01-08T18:55:03.855Z,89.40
2023-01-08T19:05:11.005Z,84.80
2023-01-08T19:15:18.034Z,85.50
2023-01-08T19:25:24.374Z,104.60
2023-01-08T19:35:31.153Z,132.70
2023-01-08T19:45:38.606Z,97.10
2023-01-08T19:55:46.503Z,87.60
2023-01-08T20:05:53.729Z,79.90
2023-01-08T20:16:00.103Z,93.20
2023-01-08T20:26:09.372Z,86.40
2023-01-08T20:36:22.047Z,75.20
2023-01-08T20:46:30.074Z,80.30
2023-01-08T20:56:36.396Z,73.60
2023-01-08T21:06:42.905Z,82.30
2023-01-08T21:16:49.299Z,85.60
2023-01-08T21:26:55.669Z,93.60
2023-01-08T21:37:03.704Z,77.60
2023-01-08T21:47:19.275Z,74.00
2023-01-08T21:57:28.797Z,73.00
2023-01-08T22:07:35.259Z,72.60
2023-01-08T22:17:41.550Z,86.30
2023-01-08T22:27:47.850Z,78.40
2023-01-08T22:37:54.171Z,82.80
2023-01-08T22:48:00.554Z,83.70
2023-01-08T22:58:06.857Z,83.70
2023-01-08T23:08:13.187Z,81.30
2023-01-08T23:18:19.730Z,74.70
2023-01-08T23:28:26.060Z,73.50
2023-01-08T23:38:33.098Z,74.20
2023-01-08T23:48:39.371Z,73.50
2023-01-08T23:58:46.479Z,66.70
